createdAt,value
2023-05-19T00:01:09.614Z,102433.91
2023-05-19T00:03:37.786Z,102439.59
2023-05-19T00:06:05.689Z,102436.03
2023-05-19T00:08:34.584Z,102446.03
2023-05-19T00:11:02.180Z,102436.44
2023-05-19T00:13:29.888Z,102439.91
2023-05-19T00:15:59.219Z,102440.91
2023-05-19T00:18:26.615Z,102446.28
2023-05-19T00:20:54.856Z,102448.47
2023-05-19T00:23:22.089Z,102450.94
2023-05-19T00:25:49.322Z,102450.91
2023-05-19T00:28:16.606Z,102456.09
2023-05-19T00:30:43.961Z,102452.63
2023-05-19T00:33:12.862Z,102449.00
2023-05-19T00:35:40.116Z,102443.25
2023-05-19T00:38:07.384Z,102442.78
2023-05-19T00:40:35.475Z,102435.88
2023-05-19T00:43:02.739Z,102439.38
2023-05-19T00:45:30.523Z,102440.03
2023-05-19T00:47:57.751Z,102441.72
2023-05-19T00:50:27.361Z,102437.75
2023-05-19T00:52:54.916Z,102437.00
2023-05-19T00:55:26.427Z,102442.13
2023-05-19T00:57:54.326Z,102435.59
2023-05-19T01:00:21.855Z,102436.81
2023-05-19T01:02:49.413Z,102443.34
2023-05-19T01:05:17.142Z,102441.66
2023-05-19T01:07:45.876Z,102440.63
2023-05-19T01:10:13.198Z,102443.00
2023-05-19T01:12:41.050Z,102437.63
2023-05-19T01:15:09.342Z,102447.63
2023-05-19T01:17:38.846Z,102444.22
2023-05-19T01:20:13.800Z,102443.47
2023-05-19T01:23:06.491Z,102439.59
2023-05-19T01:26:01.676Z,102440.25
2023-05-19T01:29:02.696Z,102434.31
2023-05-19T01:31:31.553Z,102429.84
2023-05-19T01:34:00.305Z,102432.91
2023-05-19T01:36:29.722Z,102443.28
2023-05-19T01:38:59.330Z,102440.63
2023-05-19T01:41:27.215Z,102444.03
2023-05-19T01:43:54.555Z,102444.91
2023-05-19T01:46:23.885Z,102449.16
2023-05-19T01:48:52.947Z,102443.84
2023-05-19T01:51:21.276Z,102441.69
2023-05-19T01:53:48.931Z,102436.94
2023-05-19T01:56:20.876Z,102433.63
2023-05-19T01:58:58.431Z,102437.03
2023-05-19T02:01:37.868Z,102431.84
2023-05-19T02:04:19.456Z,102434.66
2023-05-19T02:06:55.049Z,102434.66
2023-05-19T02:09:26.775Z,102440.44
2023-05-19T02:12:00.003Z,102436.09
2023-05-19T02:14:33.657Z,102440.59
2023-05-19T02:17:04.283Z,102437.56
2023-05-19T02:19:34.361Z,102437.13
2023-05-19T02:22:01.612Z,102443.03
2023-05-19T02:24:28.934Z,102444.19
2023-05-19T02:26:56.248Z,102438.69
2023-05-19T02:29:23.637Z,102433.91
2023-05-19T02:31:51.950Z,102439.19
2023-05-19T02:34:19.556Z,102438.69
2023-05-19T02:36:48.222Z,102432.25
2023-05-19T02:39:16.293Z,102433.63
2023-05-19T02:41:43.821Z,102429.34
2023-05-19T02:44:11.071Z,102419.31
2023-05-19T02:46:38.316Z,102435.31
2023-05-19T02:49:05.651Z,102426.16
2023-05-19T02:51:32.939Z,102418.13
2023-05-19T02:54:01.530Z,102415.03
2023-05-19T02:56:28.844Z,102415.84
2023-05-19T02:58:56.079Z,102417.59
2023-05-19T03:01:23.415Z,102418.50
2023-05-19T03:03:51.069Z,102421.38
2023-05-19T03:06:18.420Z,102418.75
2023-05-19T03:08:45.715Z,102423.69
2023-05-19T03:11:14.380Z,102430.31
2023-05-19T03:13:41.790Z,102422.28
2023-05-19T03:16:09.362Z,102415.50
2023-05-19T03:18:36.651Z,102422.06
2023-05-19T03:21:04.031Z,102421.13
2023-05-19T03:23:31.542Z,102417.22
2023-05-19T03:25:58.813Z,102414.03
2023-05-19T03:28:27.415Z,102424.44
2023-05-19T03:30:54.915Z,102424.19
2023-05-19T03:33:23.046Z,102423.69
2023-05-19T03:35:50.589Z,102426.22
2023-05-19T03:38:17.822Z,102420.88
2023-05-19T03:40:45.147Z,102429.31
2023-05-19T03:43:12.478Z,102432.97
2023-05-19T03:45:41.650Z,102421.38
2023-05-19T03:48:08.965Z,102425.22
2023-05-19T03:50:36.278Z,102426.53
2023-05-19T03:53:03.654Z,102432.63
2023-05-19T03:55:30.981Z,102425.09
2023-05-19T03:57:58.262Z,102430.38
2023-05-19T04:00:25.522Z,102423.06
2023-05-19T04:02:54.313Z,102424.56
2023-05-19T04:05:21.674Z,102427.69
2023-05-19T04:07:48.959Z,102434.50
2023-05-19T04:10:16.212Z,102429.75
2023-05-19T04:12:43.495Z,102428.94
2023-05-19T04:15:11.471Z,102429.66
2023-05-19T04:17:39.390Z,102437.59
2023-05-19T04:20:12.169Z,102433.81
2023-05-19T04:22:39.449Z,102431.44
2023-05-19T04:25:07.573Z,102430.41
2023-05-19T04:27:34.887Z,102434.34
2023-05-19T04:30:02.506Z,102433.59
2023-05-19T04:32:29.830Z,102443.09
2023-05-19T04:34:57.203Z,102435.75
2023-05-19T04:37:25.910Z,102435.91
2023-05-19T04:39:53.479Z,102435.97
2023-05-19T04:42:20.834Z,102441.91
2023-05-19T04:44:48.100Z,102437.75
2023-05-19T04:47:15.588Z,102434.59
2023-05-19T04:49:42.825Z,102446.81
2023-05-19T04:52:11.047Z,102439.28
2023-05-19T04:54:40.168Z,102433.88
2023-05-19T04:57:07.651Z,102430.59
2023-05-19T04:59:34.964Z,102437.25
2023-05-19T05:02:02.297Z,102434.38
2023-05-19T05:04:29.653Z,102435.34
2023-05-19T05:06:56.962Z,102439.38
2023-05-19T05:09:24.189Z,102439.06
2023-05-19T05:11:53.580Z,102441.50
2023-05-19T05:14:21.548Z,102443.41
2023-05-19T05:16:49.911Z,102436.94
2023-05-19T05:19:17.818Z,102447.94
2023-05-19T05:21:45.941Z,102446.66
2023-05-19T05:24:15.287Z,102445.66
2023-05-19T05:26:43.233Z,102446.09
2023-05-19T05:29:11.895Z,102443.88
2023-05-19T05:31:40.241Z,102441.88
2023-05-19T05:34:07.557Z,102440.00
2023-05-19T05:36:34.884Z,102443.56
2023-05-19T05:39:03.337Z,102436.75
2023-05-19T05:41:30.554Z,102432.00
2023-05-19T05:43:57.831Z,102440.88
2023-05-19T05:46:26.579Z,102439.28
2023-05-19T05:48:54.685Z,102438.56
2023-05-19T05:51:22.713Z,102439.56
2023-05-19T05:53:51.930Z,102439.56
2023-05-19T05:56:19.769Z,102442.22
2023-05-19T05:58:48.120Z,102442.59
2023-05-19T06:01:15.442Z,102433.75
2023-05-19T06:03:44.139Z,102435.44
2023-05-19T06:06:11.536Z,102435.06
2023-05-19T06:08:38.838Z,102435.66
2023-05-19T06:11:06.129Z,102435.75
2023-05-19T06:13:33.526Z,102435.78
2023-05-19T06:16:02.000Z,102430.09
2023-05-19T06:18:29.593Z,102434.94
2023-05-19T06:20:58.468Z,102429.53
2023-05-19T06:23:25.838Z,102428.25
2023-05-19T06:25:53.086Z,102426.81
2023-05-19T06:28:20.376Z,102430.03
2023-05-19T06:30:47.603Z,102433.34
2023-05-19T06:33:15.207Z,102436.84
2023-05-19T06:35:42.466Z,102435.28
2023-05-19T06:38:11.083Z,102429.81
2023-05-19T06:40:38.612Z,102433.72
2023-05-19T06:43:06.798Z,102433.22
2023-05-19T06:45:34.026Z,102440.53
2023-05-19T06:48:01.443Z,102441.50
2023-05-19T06:50:28.769Z,102431.69
2023-05-19T06:52:55.962Z,102433.91
2023-05-19T06:55:24.792Z,102439.84
2023-05-19T06:57:52.056Z,102437.00
2023-05-19T07:00:21.975Z,102446.50
2023-05-19T07:02:51.057Z,102442.22
2023-05-19T07:05:18.755Z,102440.44
2023-05-19T07:07:45.987Z,102443.97
2023-05-19T07:10:13.253Z,102441.56
2023-05-19T07:12:42.343Z,102438.88
2023-05-19T07:15:10.374Z,102440.13
2023-05-19T07:17:37.652Z,102441.41
2023-05-19T07:20:06.186Z,102432.25
2023-05-19T07:22:33.593Z,102444.66
2023-05-19T07:25:00.904Z,102445.59
2023-05-19T07:27:28.910Z,102444.03
2023-05-19T07:29:58.001Z,102446.88
2023-05-19T07:32:25.653Z,102441.63
2023-05-19T07:34:53.108Z,102438.97
2023-05-19T07:37:20.382Z,102433.88
2023-05-19T07:39:47.668Z,102441.91
2023-05-19T07:42:14.981Z,102433.63
2023-05-19T07:44:42.235Z,102432.53
2023-05-19T07:47:11.914Z,102430.63
2023-05-19T07:49:39.250Z,102430.19
2023-05-19T07:52:07.048Z,102426.09
2023-05-19T07:54:34.341Z,102428.81
2023-05-19T07:57:01.644Z,102416.69
2023-05-19T07:59:28.863Z,102425.00
2023-05-19T08:01:57.778Z,102420.41
2023-05-19T08:04:26.517Z,102428.25
2023-05-19T08:06:53.803Z,102424.81
2023-05-19T08:09:21.148Z,102425.09
2023-05-19T08:11:48.485Z,102420.91
2023-05-19T08:14:16.107Z,102424.50
2023-05-19T08:16:43.378Z,102422.16
2023-05-19T08:19:10.738Z,102419.13
2023-05-19T08:21:39.399Z,102423.44
2023-05-19T08:24:06.899Z,102422.41
2023-05-19T08:26:36.299Z,102420.41
2023-05-19T08:29:04.986Z,102427.72
2023-05-19T08:31:32.283Z,102423.41
2023-05-19T08:33:59.626Z,102426.31
2023-05-19T08:36:26.920Z,102426.25
2023-05-19T08:38:55.887Z,102421.91
2023-05-19T08:41:23.242Z,102420.13
2023-05-19T08:43:50.942Z,102418.16
2023-05-19T08:46:20.473Z,102425.66
2023-05-19T08:48:48.520Z,102427.66
2023-05-19T08:51:25.864Z,102432.56
2023-05-19T08:54:00.308Z,102429.38
2023-05-19T08:56:28.059Z,102421.53
2023-05-19T08:58:56.146Z,102412.41
2023-05-19T09:01:24.017Z,102418.22
2023-05-19T09:03:52.143Z,102408.81
2023-05-19T09:06:19.585Z,102405.50
2023-05-19T09:08:47.162Z,102393.19
2023-05-19T09:11:15.831Z,102389.78
2023-05-19T09:13:43.096Z,102386.03
2023-05-19T09:16:11.107Z,102383.94
2023-05-19T09:18:39.049Z,102375.75
2023-05-19T09:21:06.553Z,102376.81
2023-05-19T09:23:34.603Z,102375.91
2023-05-19T09:26:03.072Z,102375.41
2023-05-19T09:28:34.591Z,102378.56
2023-05-19T09:31:03.402Z,102372.22
2023-05-19T09:33:33.584Z,102369.22
2023-05-19T09:36:01.186Z,102367.47
2023-05-19T09:38:28.585Z,102366.13
2023-05-19T09:40:57.292Z,102367.53
2023-05-19T09:43:24.687Z,102368.03
2023-05-19T09:45:59.370Z,102371.34
2023-05-19T09:48:27.246Z,102360.72
2023-05-19T09:50:54.748Z,102362.69
2023-05-19T09:53:22.195Z,102377.31
2023-05-19T09:55:51.078Z,102371.34
2023-05-19T09:58:20.058Z,102365.25
2023-05-19T10:00:48.183Z,102358.03
2023-05-19T10:03:17.886Z,102357.47
2023-05-19T10:05:46.690Z,102347.63
2023-05-19T10:08:14.402Z,102348.19
2023-05-19T10:10:42.549Z,102354.03
2023-05-19T10:13:10.368Z,102346.50
2023-05-19T10:15:53.725Z,102346.19
2023-05-19T10:18:27.138Z,102346.78
2023-05-19T10:20:54.835Z,102340.22
2023-05-19T10:23:21.960Z,102337.47
2023-05-19T10:25:50.598Z,102334.75
2023-05-19T10:28:19.844Z,102334.41
2023-05-19T10:30:50.604Z,102333.16
2023-05-19T10:33:19.921Z,102336.34
2023-05-19T10:36:15.599Z,102329.16
2023-05-19T10:38:51.657Z,102324.13
2023-05-19T10:41:26.079Z,102330.88
2023-05-19T10:43:59.467Z,102328.50
2023-05-19T10:46:26.962Z,102335.94
2023-05-19T10:48:54.568Z,102329.78
2023-05-19T10:51:30.245Z,102327.31
2023-05-19T10:53:57.874Z,102327.41
2023-05-19T10:56:28.191Z,102323.81
2023-05-19T10:58:55.392Z,102323.78
2023-05-19T11:01:22.766Z,102311.66
2023-05-19T11:03:51.004Z,102309.56
2023-05-19T11:06:26.837Z,102318.75
2023-05-19T11:08:57.056Z,102320.56
2023-05-19T11:11:24.438Z,102319.00
2023-05-19T11:13:52.395Z,102323.16
2023-05-19T11:16:26.293Z,102324.53
2023-05-19T11:18:54.235Z,102317.50
2023-05-19T11:21:23.021Z,102321.03
2023-05-19T11:23:51.728Z,102324.09
2023-05-19T11:26:43.038Z,102312.16
2023-05-19T11:29:10.875Z,102311.69
2023-05-19T11:31:39.324Z,102309.34
2023-05-19T11:34:06.813Z,102309.16
2023-05-19T11:36:36.305Z,102310.00
2023-05-19T11:39:04.361Z,102297.53
2023-05-19T11:41:31.677Z,102297.06
2023-05-19T11:43:59.227Z,102291.47
2023-05-19T11:46:26.647Z,102293.09
2023-05-19T11:48:54.488Z,102295.69
2023-05-19T11:51:23.328Z,102289.75
2023-05-19T11:53:52.082Z,102284.97
2023-05-19T11:56:19.424Z,102283.34
2023-05-19T11:58:48.265Z,102283.72
2023-05-19T12:01:15.811Z,102291.00
2023-05-19T12:03:43.195Z,102293.47
2023-05-19T12:06:10.448Z,102298.88
2023-05-19T12:08:37.658Z,102294.38
2023-05-19T12:11:06.912Z,102294.03
2023-05-19T12:13:35.121Z,102297.25
2023-05-19T12:16:03.800Z,102295.09
2023-05-19T12:18:31.275Z,102296.19
2023-05-19T12:20:58.659Z,102291.84
2023-05-19T12:23:27.411Z,102292.22
2023-05-19T12:25:55.479Z,102292.88
2023-05-19T12:28:24.233Z,102290.28
2023-05-19T12:30:52.137Z,102277.53
2023-05-19T12:33:19.816Z,102275.94
2023-05-19T12:35:46.931Z,102274.22
2023-05-19T12:38:14.607Z,102280.13
2023-05-19T12:40:42.544Z,102279.59
2023-05-19T12:43:19.414Z,102280.97
2023-05-19T12:45:48.624Z,102275.16
2023-05-19T12:48:16.203Z,102276.09
2023-05-19T12:50:43.810Z,102280.81
2023-05-19T12:53:12.178Z,102273.13
2023-05-19T12:55:40.107Z,102272.47
2023-05-19T12:58:07.516Z,102263.19
2023-05-19T13:00:40.714Z,102254.63
2023-05-19T13:03:16.315Z,102264.88
2023-05-19T13:05:45.659Z,102266.47
2023-05-19T13:08:14.772Z,102272.84
2023-05-19T13:10:43.684Z,102272.59
2023-05-19T13:13:11.642Z,102269.06
2023-05-19T13:15:41.998Z,102270.69
2023-05-19T13:18:12.154Z,102272.44
2023-05-19T13:20:40.769Z,102273.69
2023-05-19T13:23:11.420Z,102273.34
2023-05-19T13:25:39.197Z,102270.34
2023-05-19T13:28:06.614Z,102266.31
2023-05-19T13:30:34.939Z,102260.28
2023-05-19T13:33:02.804Z,102255.53
2023-05-19T13:35:31.464Z,102264.09
2023-05-19T13:37:58.735Z,102261.41
2023-05-19T13:40:26.038Z,102252.56
2023-05-19T13:42:53.351Z,102245.09
2023-05-19T13:45:20.657Z,102245.94
2023-05-19T13:47:48.043Z,102247.13
2023-05-19T13:50:15.360Z,102256.38
2023-05-19T13:52:44.096Z,102255.97
2023-05-19T13:55:11.363Z,102254.78
2023-05-19T13:57:38.643Z,102258.63
2023-05-19T14:00:07.351Z,102261.09
2023-05-19T14:02:34.894Z,102262.53
2023-05-19T14:05:02.198Z,102267.59
2023-05-19T14:07:29.760Z,102268.25
2023-05-19T14:09:58.415Z,102265.84
2023-05-19T14:12:36.380Z,102264.31
2023-05-19T14:15:09.165Z,102259.84
2023-05-19T14:17:37.274Z,102256.22
2023-05-19T14:20:05.862Z,102262.72
2023-05-19T14:22:33.286Z,102264.41
2023-05-19T14:25:01.977Z,102276.47
2023-05-19T14:27:29.227Z,102260.38
2023-05-19T14:29:57.773Z,102247.50
2023-05-19T14:32:25.921Z,102255.31
2023-05-19T14:34:54.622Z,102243.66
2023-05-19T14:37:21.924Z,102256.63
2023-05-19T14:39:49.916Z,102253.81
2023-05-19T14:42:18.548Z,102259.16
2023-05-19T14:44:45.879Z,102274.69
2023-05-19T14:47:13.259Z,102274.25
2023-05-19T14:49:40.599Z,102264.78
2023-05-19T14:52:08.142Z,102272.47
2023-05-19T14:54:35.444Z,102266.28
2023-05-19T14:57:02.749Z,102269.81
2023-05-19T14:59:31.449Z,102273.34
2023-05-19T15:01:58.694Z,102274.03
2023-05-19T15:04:26.026Z,102267.81
2023-05-19T15:07:05.670Z,102272.81
2023-05-19T15:09:36.842Z,102256.13
2023-05-19T15:12:04.247Z,102253.63
2023-05-19T15:14:32.968Z,102255.47
2023-05-19T15:17:00.340Z,102258.91
2023-05-19T15:19:27.853Z,102253.34
2023-05-19T15:21:55.296Z,102248.75
2023-05-19T15:24:22.636Z,102268.09
2023-05-19T15:26:50.004Z,102261.88
2023-05-19T15:29:17.269Z,102250.50
2023-05-19T15:31:46.067Z,102258.25
2023-05-19T15:34:13.356Z,102257.88
2023-05-19T15:36:40.674Z,102257.91
2023-05-19T15:39:07.897Z,102253.50
2023-05-19T15:41:35.380Z,102258.38
2023-05-19T15:44:02.793Z,102255.97
2023-05-19T15:46:30.342Z,102261.53
2023-05-19T15:48:59.057Z,102247.78
2023-05-19T15:51:26.742Z,102264.63
2023-05-19T15:53:53.786Z,102262.09
2023-05-19T15:56:21.253Z,102261.41
2023-05-19T15:58:48.692Z,102259.06
2023-05-19T16:01:16.526Z,102252.16
2023-05-19T16:03:44.701Z,102250.78
2023-05-19T16:06:13.580Z,102250.97
2023-05-19T16:08:40.863Z,102253.63
2023-05-19T16:11:08.220Z,102244.25
2023-05-19T16:13:35.497Z,102242.56
2023-05-19T16:16:03.082Z,102241.88
2023-05-19T16:18:30.408Z,102233.94
2023-05-19T16:20:57.667Z,102240.09
2023-05-19T16:23:29.307Z,102228.63
2023-05-19T16:25:56.795Z,102236.03
2023-05-19T16:28:24.984Z,102235.03
2023-05-19T16:30:52.452Z,102227.78
2023-05-19T16:33:19.762Z,102229.25
2023-05-19T16:35:47.052Z,102222.34
2023-05-19T16:40:39.700Z,102229.94
2023-05-19T16:43:06.936Z,102234.06
2023-05-19T16:45:34.238Z,102242.34
2023-05-19T16:48:01.609Z,102238.84
2023-05-19T16:50:28.976Z,102235.13
2023-05-19T16:52:56.201Z,102230.59
2023-05-19T16:55:23.453Z,102222.69
2023-05-19T16:57:52.165Z,102226.91
2023-05-19T17:00:19.835Z,102228.66
2023-05-19T17:02:47.066Z,102227.47
2023-05-19T17:05:14.348Z,102224.25
2023-05-19T17:07:41.561Z,102223.94
2023-05-19T17:10:09.639Z,102233.63
2023-05-19T17:12:37.047Z,102240.78
2023-05-19T17:15:06.860Z,102236.22
2023-05-19T17:17:34.115Z,102240.72
2023-05-19T17:20:01.384Z,102235.22
2023-05-19T17:22:30.243Z,102237.38
2023-05-19T17:24:57.774Z,102240.66
2023-05-19T17:27:25.085Z,102241.66
2023-05-19T17:29:52.305Z,102245.25
2023-05-19T17:32:20.991Z,102243.16
2023-05-19T17:34:48.236Z,102254.56
2023-05-19T17:37:15.504Z,102253.56
2023-05-19T17:39:42.777Z,102259.34
2023-05-19T17:42:10.395Z,102260.50
2023-05-19T17:44:37.635Z,102262.28
2023-05-19T17:47:05.097Z,102253.69
2023-05-19T17:49:34.090Z,102256.72
2023-05-19T17:52:01.934Z,102256.88
2023-05-19T17:54:29.757Z,102261.13
2023-05-19T17:56:58.603Z,102261.59
2023-05-19T17:59:26.394Z,102249.19
2023-05-19T18:01:53.754Z,102262.69
2023-05-19T18:04:21.744Z,102265.28
2023-05-19T18:06:51.486Z,102267.28
2023-05-19T18:09:19.791Z,102266.50
2023-05-19T18:11:47.061Z,102267.44
2023-05-19T18:14:14.329Z,102273.94
2023-05-19T18:16:41.688Z,102265.66
2023-05-19T18:19:09.131Z,102275.78
2023-05-19T18:21:36.410Z,102267.84
2023-05-19T18:24:05.584Z,102270.28
2023-05-19T18:26:32.850Z,102266.69
2023-05-19T18:29:00.149Z,102272.28
2023-05-19T18:31:27.838Z,102271.66
2023-05-19T18:33:55.181Z,102270.34
2023-05-19T18:36:23.168Z,102270.88
2023-05-19T18:38:50.473Z,102277.06
2023-05-19T18:41:19.197Z,102276.00
2023-05-19T18:43:46.507Z,102280.97
2023-05-19T18:46:14.124Z,102280.97
2023-05-19T18:48:41.293Z,102278.00
2023-05-19T18:51:08.491Z,102279.72
2023-05-19T18:53:36.609Z,102275.28
2023-05-19T18:56:05.368Z,102281.44
2023-05-19T18:58:34.050Z,102279.50
2023-05-19T19:01:01.566Z,102283.06
2023-05-19T19:03:28.851Z,102284.59
2023-05-19T19:05:56.777Z,102286.59
2023-05-19T19:08:24.258Z,102288.16
2023-05-19T19:10:51.831Z,102282.94
2023-05-19T19:13:19.240Z,102288.28
2023-05-19T19:15:49.213Z,102277.34
2023-05-19T19:18:16.536Z,102280.03
2023-05-19T19:20:44.942Z,102288.50
2023-05-19T19:23:12.174Z,102289.09
2023-05-19T19:25:39.437Z,102280.56
2023-05-19T19:28:06.657Z,102287.19
2023-05-19T19:30:34.125Z,102289.72
2023-05-19T19:33:04.615Z,102284.00
2023-05-19T19:35:32.644Z,102284.56
2023-05-19T19:37:59.968Z,102286.06
2023-05-19T19:40:27.250Z,102295.38
2023-05-19T19:42:54.497Z,102291.03
2023-05-19T19:45:21.716Z,102288.19
2023-05-19T19:47:49.011Z,102289.91
2023-05-19T19:50:17.750Z,102295.22
2023-05-19T19:52:44.988Z,102289.31
2023-05-19T19:55:12.241Z,102289.47
2023-05-19T19:57:39.455Z,102293.97
2023-05-19T20:00:09.218Z,102300.59
2023-05-19T20:02:40.966Z,102299.47
2023-05-19T20:05:13.525Z,102301.72
2023-05-19T20:07:44.369Z,102299.78
2023-05-19T20:10:11.828Z,102299.72
2023-05-19T20:12:39.217Z,102293.28
2023-05-19T20:15:07.925Z,102295.78
2023-05-19T20:17:35.270Z,102303.06
2023-05-19T20:20:03.910Z,102305.56
2023-05-19T20:22:31.380Z,102308.28
2023-05-19T20:25:00.058Z,102301.81
2023-05-19T20:27:27.331Z,102306.75
2023-05-19T20:29:54.574Z,102312.94
2023-05-19T20:32:21.868Z,102309.81
2023-05-19T20:34:49.149Z,102300.84
2023-05-19T20:37:16.491Z,102299.47
2023-05-19T20:39:44.698Z,102307.69
2023-05-19T20:42:13.336Z,102314.28
2023-05-19T20:44:40.901Z,102316.50
2023-05-19T20:47:08.237Z,102323.28
2023-05-19T20:49:36.685Z,102323.63
2023-05-19T20:52:04.532Z,102321.47
2023-05-19T20:54:34.649Z,102321.41
2023-05-19T20:57:01.941Z,102328.47
2023-05-19T20:59:30.526Z,102329.69
2023-05-19T21:01:57.942Z,102327.53
2023-05-19T21:04:25.259Z,102330.94
2023-05-19T21:06:53.746Z,102329.69
2023-05-19T21:09:21.678Z,102332.44
2023-05-19T21:11:48.968Z,102335.88
2023-05-19T21:14:16.336Z,102334.44
2023-05-19T21:16:47.628Z,102330.06
2023-05-19T21:19:15.253Z,102330.69
2023-05-19T21:21:42.592Z,102330.59
2023-05-19T21:24:09.867Z,102332.63
2023-05-19T21:26:37.203Z,102336.22
2023-05-19T21:29:04.623Z,102334.78
2023-05-19T21:31:31.937Z,102331.91
2023-05-19T21:34:01.129Z,102331.53
2023-05-19T21:36:28.423Z,102333.53
2023-05-19T21:38:55.807Z,102341.97
2023-05-19T21:41:23.197Z,102344.34
2023-05-19T21:43:50.470Z,102356.25
2023-05-19T21:46:17.823Z,102345.16
2023-05-19T21:48:45.107Z,102353.16
2023-05-19T21:51:13.775Z,102353.38
2023-05-19T21:53:41.099Z,102348.06
2023-05-19T21:56:08.646Z,102360.63
2023-05-19T21:58:35.949Z,102357.25
2023-05-19T22:01:04.181Z,102355.09
2023-05-19T22:03:32.841Z,102353.03
2023-05-19T22:06:00.129Z,102362.50
2023-05-19T22:08:28.891Z,102353.22
2023-05-19T22:10:56.239Z,102352.88
2023-05-19T22:13:23.604Z,102354.72
2023-05-19T22:15:50.900Z,102359.81
2023-05-19T22:18:18.223Z,102356.97
2023-05-19T22:20:45.469Z,102358.94
2023-05-19T22:23:12.770Z,102348.88
2023-05-19T22:25:41.442Z,102352.03
2023-05-19T22:28:10.361Z,102354.31
2023-05-19T22:30:39.300Z,102353.91
2023-05-19T22:33:08.469Z,102355.25
2023-05-19T22:35:35.817Z,102351.59
2023-05-19T22:38:03.137Z,102359.72
2023-05-19T22:40:30.973Z,102368.56
2023-05-19T22:42:59.559Z,102366.59
2023-05-19T22:45:26.803Z,102366.00
2023-05-19T22:47:54.112Z,102363.09
2023-05-19T22:50:21.673Z,102366.47
2023-05-19T22:52:49.016Z,102365.50
2023-05-19T22:55:16.280Z,102366.25
2023-05-19T22:57:43.510Z,102365.28
2023-05-19T23:00:13.219Z,102373.72
2023-05-19T23:02:40.841Z,102364.44
2023-05-19T23:05:08.948Z,102368.69
2023-05-19T23:07:36.304Z,102366.16
2023-05-19T23:10:03.972Z,102370.25
2023-05-19T23:12:31.264Z,102371.53
2023-05-19T23:14:58.527Z,102371.53
2023-05-19T23:17:27.212Z,102359.84
2023-05-19T23:19:54.482Z,102368.41
2023-05-19T23:22:21.745Z,102364.91
2023-05-19T23:24:49.127Z,102359.94
2023-05-19T23:27:16.390Z,102351.50
2023-05-19T23:29:47.385Z,102354.91
2023-05-19T23:32:14.729Z,102346.66
2023-05-19T23:34:43.335Z,102354.03
2023-05-19T23:37:10.577Z,102350.06
2023-05-19T23:39:37.886Z,102344.84
2023-05-19T23:42:05.626Z,102352.22
2023-05-19T23:44:32.926Z,102351.25
2023-05-19T23:47:00.283Z,102350.91
2023-05-19T23:49:27.603Z,102351.72
2023-05-19T23:51:56.239Z,102344.84
2023-05-19T23:54:23.668Z,102349.44
2023-05-19T23:56:50.906Z,102340.06
2023-05-19T23:59:18.181Z,102347.16
